Terminal Aerodrome Forecast
Issued by NWS

Home | Current Version | Previous Version | Text Only | Print | Product List | Glossary On
Versions: 1 2 3 4 5 6 7 8 9 10 11 12 13 14 15 16 17 18 19 20
000
FTUS43 KSGF 211100 CCA
TAFJLN
TAF COR
KJLN 211139Z 2112/2212 12008KT P6SM OVC015
      TEMPO 2112/2116 5SM -RADZ
     FM211600 15014KT P6SM -DZ OVC015
     FM220000 16014KT P6SM OVC015 WS020/20045KT=

USA.gov is the U.S. government's official web portal to all federal, state and local government web resources and services.